Ludington, MI

01:46 AM EST del 06 Febbraio 2016 (GMT -0500)
Mason County | | Change Station
CLOSE
Current Station
Aeroporto
Location: Ludington,
Altitudine: 646 ft
Stazioni meteo nelle vicinanze

Alt. 646 ft 43.96 °N, 86.41 °W | Updated 11 minutes ago

Coperto
Coperto
20 °F
Sembra 15 °F
N
4
Vento Variabile Vento da SSE

Oggi
Massima -- | Minima -- °F
--% Possibilità di precip.
Ieri
Massima -- | Minima -- °F
Precip. -- in
Pressione 30.22 in
Visibilità 10.0 miglia
Nuvole Coperto 11000 ft
Raffreddamento del vento 15 °F
Punto di rugiada 18 °F
Umidità 89%
Piovosità 0.00 in
Spessore del manto nevoso Non disponibile.
7:57 AM 6:02 PM
Luna calante, 7% visible
METAR KLDM 060635Z AUTO 15003KT 10SM OVC110 M06/M08 A3022 RMK AO2 T10651080
Pressione 30.22 in
Visibilità 10.0 miglia
Nuvole Coperto 11000 ft
Raffreddamento del vento 15 °F
Punto di rugiada 18 °F
Umidità 89%
Piovosità 0.00 in
Spessore del manto nevoso Non disponibile.
7:57 AM 6:02 PM
Luna calante, 7% visible
METAR KLDM 060635Z AUTO 15003KT 10SM OVC110 M06/M08 A3022 RMK AO2 T10651080

10-Day Weather Forecast

Almanac

Astronomia

Feb. 06, 2016 Alba Tramonto
Ora attuale
Crepuscolo civile
Crepuscolo nautico
Crepuscolo astronomico
Luna
Estensione della luce visibile
Lunghezza del giorno
Tomorrow will be .
, % of the Moon is Illuminated

Gli estremi di oggi

State Highs State Lows

Community

WunderPhotos

Upload Photos

1,890,932 foto caricate!

WunderBlog® & News

Nearby

Qualità dell'aria

  Qualità dell'aria Indice AQ Inquinante
Not available.

Profondità neve

Stazione Profondità Altitudine

Attività sismica

Città  Distanza Mag. Data & Ora
Minimo Magnitudo Mostrato è 2.5.

Temperature delle acque costiere

Località Temperatura

Stations

Stazioni meteo nelle vicinanze

Ubicazione della stazione Temp. Raffreddamento del vento Punto di rugiada Umidità Vento Precip. Alt. Aggiornato Tipo
                   

Watches & Warnings

There are currently no watches in effect.